Flight Track Log - Related Links

Times and Time Zones

All times are in EDT time to prevent confusion due to time zone crossing. See the WBR129 flight status page for this flight to view local times or setup timezone preferences in your user account.

Time Position Orientation Groundspeed Altitude Reporting Facility
EDT Latitude Longitude Course Direction KTS MPH feet Rate Location/Type
Tue 10:55:26 39.5707 -89.2157 222° Southwest  Level FlightAware Approximate
Tue 10:56:26 39.5460 -89.2500 221° Southwest  Level FlightAware Approximate
Tue 10:57:26 39.5214 -89.2843 220° Southwest  Level FlightAware Approximate
Tue 10:58:26 39.4967 -89.3186 218° Southwest  Level FlightAware Approximate
Tue 10:59:26 39.4721 -89.3528 215° Southwest  Level FlightAware Approximate
Tue 11:00:26 39.4474 -89.3870 207° Southwest  Level FlightAware Approximate
Tue 11:01:26 39.4227 -89.4212 180° South  Level FlightAware Approximate
Tue 11:02:26 39.3980 -89.4554 97° East  Level FlightAware Approximate
Tue 11:03:26 39.3733 -89.4895 68° East  Level FlightAware Approximate
Tue 11:04:26 39.3486 -89.5237 60° Northeast  Level FlightAware Approximate
Tue 11:05:26 39.3239 -89.5578 56° Northeast  Level FlightAware Approximate
Tue 11:06:26 39.2992 -89.5918 54° Northeast  Level FlightAware Approximate
Tue 11:07:26 39.2744 -89.6259 53° Northeast  Level FlightAware Approximate
Tue 11:08:26 39.2497 -89.6599 52° Northeast  Level FlightAware Approximate
Tue 11:09:26 39.2249 -89.6939 51° Northeast  Level FlightAware Approximate
Tue 11:10:26 39.2053 -89.7324 52° Northeast  Level FlightAware Approximate
Tue 11:11:26 39.1802 -89.7660 51° Northeast  Level FlightAware Approximate
Tue 11:12:26 39.1552 -89.7996 51° Northeast  Level FlightAware Approximate
Tue 11:13:26 39.1301 -89.8332 50° Northeast  Level FlightAware Approximate
Tue 11:14:02 39.3950 -89.4214 223° Southwest 125 144 3,900  Level FAA TRACON SMA TRACON (SMA)
Tue 11:14:41 39.3794 -89.4403 228° Southwest 125 144 3,900 76 Level FAA TRACON SMA TRACON (SMA)
Tue 11:15:21 39.3633 -89.4633 228° Southwest 125 144 4,000  Climbing FAA TRACON SMA TRACON (SMA)
Tue 11:16:02 39.3469 -89.4867 225° Southwest 127 146 3,900 -75 Descending FAA TRACON SMA TRACON (SMA)
Tue 11:16:41 39.3317 -89.5061 228° Southwest 126 145 3,900  Level FAA TRACON SMA TRACON (SMA)
Tue 11:17:21 39.3153 -89.5294 228° Southwest 125 144 3,900 74 Level FAA TRACON SMA TRACON (SMA)
Tue 11:18:02 39.2992 -89.5525 224° Southwest 125 144 4,000 75 Climbing FAA TRACON SMA TRACON (SMA)
Tue 11:18:41 39.2839 -89.5714 228° Southwest 123 142 4,000 -61 Level FAA TRACON SMA TRACON (SMA)
Tue 11:19:41 39.2608 -89.6047 228° Southwest 124 143 3,900 -60 Descending FAA TRACON SMA TRACON (SMA)
Tue 11:20:21 39.2450 -89.6275 225° Southwest 124 143 3,900  Level FAA TRACON SMA TRACON (SMA)
Tue 11:21:02 39.2278 -89.6494 225° Southwest 125 144 3,900  Level FAA TRACON SMA TRACON (SMA)
Tue 11:21:41 39.2125 -89.6692 231° Southwest 126 145 3,900 76 Level FAA TRACON SMA TRACON (SMA)
Tue 11:22:21 39.1972 -89.6933 226° Southwest 126 145 4,000 74 Climbing FAA TRACON SMA TRACON (SMA)
Tue 11:23:02 39.1803 -89.7158 226° Southwest 126 145 4,000 -75 Level FAA TRACON SMA TRACON (SMA)
Tue 11:23:41 39.1653 -89.7356 234° Southwest 126 145 3,900 -75 Descending FAA TRACON SMA TRACON (SMA)
Tue 11:24:22 39.1511 -89.7611 245° Southwest 129 148 3,900  Level FAA TRACON SMA TRACON (SMA)
Tue 11:25:01 39.1414 -89.7875 241° Southwest 132 152 3,900  Level FAA TRACON SMA TRACON (SMA)
Tue 11:25:41 39.1292 -89.8158 240° Southwest 131 151 3,900 74 Level FAA TRACON SMA TRACON (SMA)
Tue 11:26:22 39.1167 -89.8436 238° Southwest 130 150 4,000 59 Climbing FAA TRACON SMA TRACON (SMA)
Tue 11:27:22 39.0975 -89.8833 243° Southwest 131 151 4,000  Level FAA TRACON SMA TRACON (SMA)
Tue 11:28:01 39.0872 -89.9092 240° Southwest 131 151 4,000 -76 Level FAA TRACON SMA TRACON (SMA)
Tue 11:28:41 39.0747 -89.9372 239° Southwest 132 152 3,900 -74 Descending FAA TRACON SMA TRACON (SMA)
Tue 11:29:22 39.0619 -89.9647 240° Southwest 130 150 3,900 74 Level FAA TRACON SMA TRACON (SMA)
Tue 11:30:02 39.0497 -89.9922 239° Southwest 128 147 4,000 76 Climbing FAA TRACON SMA TRACON (SMA)
Tue 11:30:41 39.0383 -90.0164 242° Southwest 129 148 4,000 -75 Level FAA TRACON SMA TRACON (SMA)
Tue 11:31:22 39.0264 -90.0453 239° Southwest 131 151 3,900  Descending FAA TRACON SMA TRACON (SMA)
Tue 11:32:02 39.0133 -90.0733 241° Southwest 133 153 4,000 76 Climbing FAA TRACON SMA TRACON (SMA)
Tue 11:32:41 39.0017 -90.1000 240° Southwest 137 158 4,000 -75 Level FAA TRACON SMA TRACON (SMA)
Tue 11:33:22 38.9886 -90.1294 241° Southwest 139 160 3,900 -74 Descending FAA TRACON SMA TRACON (SMA)
Tue 11:34:02 38.9772 -90.1556 239° Southwest 137 158 3,900 -152 Level FAA TRACON SMA TRACON (SMA)
Tue 11:34:41 38.9628 -90.1861 236° Southwest 145 167 3,700 -300 Descending FAA TRACON SMA TRACON (SMA)
Tue 11:35:22 38.9469 -90.2158 224° Southwest 145 167 3,500 -296 Descending FAA TRACON SMA TRACON (SMA)
Tue 11:36:02 38.9289 -90.2386 218° Southwest 146 168 3,300 -228 Descending FAA TRACON SMA TRACON (SMA)
Tue 11:36:41 38.9078 -90.2594 209° Southwest 136 157 3,200 -152 Descending FAA TRACON SMA TRACON (SMA)
Tue 11:37:21 38.8858 -90.2750 206° Southwest 127 146 3,100 -296 Descending FAA TRACON SMA TRACON (SMA)
Tue 11:38:02 38.8661 -90.2875 204° Southwest 129 148 2,800 -370 Descending FAA TRACON SMA TRACON (SMA)
Tue 11:38:42 38.8425 -90.3011 203° Southwest 135 155 2,600 -456 Descending FAA TRACON SMA TRACON (SMA)
Tue 11:39:21 38.8178 -90.3147 199° South 138 159 2,200 -525 Descending FAA TRACON SMA TRACON (SMA)
Tue 11:40:02 38.7947 -90.3250 210° Southwest 144 166 1,900 -593 Descending FAA TRACON SMA TRACON (SMA)
Tue 11:40:42 38.7711 -90.3425 159° South 139 160 1,400 -750 Descending FAA TRACON SMA TRACON (SMA)
Tue 11:41:22 38.7547 -90.3344 159° South 118 136 900 -750 Descending FAA TRACON SMA TRACON (SMA)

Login

Don't have an account? Register now (free) for customized features, flight alerts, and more!